sensor_id;sensor_type;location;lat;lon;timestamp;P1;durP1;ratioP1;P2;durP2;ratioP2
4148;SDS011;2088;51.032;7.082;2022-10-16T00:00:08;1.63;;;1.37;;
4148;SDS011;2088;51.032;7.082;2022-10-16T00:02:35;1.63;;;1.43;;
4148;SDS011;2088;51.032;7.082;2022-10-16T00:05:02;2.43;;;1.33;;
4148;SDS011;2088;51.032;7.082;2022-10-16T00:07:28;2.47;;;2.03;;
4148;SDS011;2088;51.032;7.082;2022-10-16T00:09:55;1.60;;;1.23;;
4148;SDS011;2088;51.032;7.082;2022-10-16T00:12:23;3.93;;;1.47;;
4148;SDS011;2088;51.032;7.082;2022-10-16T00:14:49;1.50;;;1.40;;
4148;SDS011;2088;51.032;7.082;2022-10-16T00:17:16;2.33;;;1.73;;
4148;SDS011;2088;51.032;7.082;2022-10-16T00:19:42;1.63;;;1.53;;
4148;SDS011;2088;51.032;7.082;2022-10-16T00:22:08;9.10;;;2.20;;
4148;SDS011;2088;51.032;7.082;2022-10-16T00:24:36;3.57;;;1.57;;
4148;SDS011;2088;51.032;7.082;2022-10-16T00:27:02;4.13;;;1.50;;
4148;SDS011;2088;51.032;7.082;2022-10-16T00:29:30;3.63;;;2.00;;
4148;SDS011;2088;51.032;7.082;2022-10-16T00:31:57;2.93;;;1.30;;
4148;SDS011;2088;51.032;7.082;2022-10-16T00:34:23;2.53;;;2.07;;
4148;SDS011;2088;51.032;7.082;2022-10-16T00:36:49;2.80;;;1.30;;
4148;SDS011;2088;51.032;7.082;2022-10-16T00:39:16;2.50;;;1.40;;
4148;SDS011;2088;51.032;7.082;2022-10-16T00:41:42;3.90;;;1.57;;
4148;SDS011;2088;51.032;7.082;2022-10-16T00:47:10;2.50;;;1.40;;
4148;SDS011;2088;51.032;7.082;2022-10-16T00:49:41;1.93;;;1.73;;
4148;SDS011;2088;51.032;7.082;2022-10-16T00:52:08;3.80;;;1.90;;
4148;SDS011;2088;51.032;7.082;2022-10-16T00:54:36;1.60;;;1.43;;
4148;SDS011;2088;51.032;7.082;2022-10-16T00:57:03;2.40;;;1.93;;
4148;SDS011;2088;51.032;7.082;2022-10-16T00:59:32;1.90;;;1.13;;
4148;SDS011;2088;51.032;7.082;2022-10-16T01:02:02;2.13;;;1.60;;
4148;SDS011;2088;51.032;7.082;2022-10-16T01:04:30;1.50;;;1.40;;
4148;SDS011;2088;51.032;7.082;2022-10-16T01:07:02;1.23;;;1.13;;
4148;SDS011;2088;51.032;7.082;2022-10-16T01:09:37;4.10;;;1.83;;
4148;SDS011;2088;51.032;7.082;2022-10-16T01:12:14;5.73;;;1.63;;
4148;SDS011;2088;51.032;7.082;2022-10-16T01:14:51;2.40;;;1.40;;
4148;SDS011;2088;51.032;7.082;2022-10-16T01:17:22;1.83;;;1.50;;
4148;SDS011;2088;51.032;7.082;2022-10-16T01:19:59;1.53;;;1.20;;
4148;SDS011;2088;51.032;7.082;2022-10-16T01:22:33;7.10;;;2.17;;
4148;SDS011;2088;51.032;7.082;2022-10-16T01:25:07;2.67;;;1.50;;
4148;SDS011;2088;51.032;7.082;2022-10-16T01:27:39;1.77;;;1.20;;
4148;SDS011;2088;51.032;7.082;2022-10-16T01:30:09;1.13;;;1.00;;
4148;SDS011;2088;51.032;7.082;2022-10-16T01:32:40;3.93;;;1.57;;
4148;SDS011;2088;51.032;7.082;2022-10-16T01:35:13;1.97;;;1.20;;
4148;SDS011;2088;51.032;7.082;2022-10-16T01:37:44;1.40;;;1.10;;
4148;SDS011;2088;51.032;7.082;2022-10-16T01:40:15;1.57;;;1.47;;
4148;SDS011;2088;51.032;7.082;2022-10-16T01:42:47;1.30;;;1.20;;
4148;SDS011;2088;51.032;7.082;2022-10-16T01:45:18;2.80;;;1.47;;
4148;SDS011;2088;51.032;7.082;2022-10-16T01:47:46;2.33;;;1.30;;
4148;SDS011;2088;51.032;7.082;2022-10-16T01:50:14;1.73;;;1.10;;
4148;SDS011;2088;51.032;7.082;2022-10-16T01:52:45;2.70;;;1.20;;
4148;SDS011;2088;51.032;7.082;2022-10-16T01:55:14;3.33;;;1.10;;
4148;SDS011;2088;51.032;7.082;2022-10-16T01:57:45;3.00;;;1.67;;
4148;SDS011;2088;51.032;7.082;2022-10-16T02:00:16;1.20;;;1.10;;
4148;SDS011;2088;51.032;7.082;2022-10-16T02:02:47;1.60;;;1.17;;
4148;SDS011;2088;51.032;7.082;2022-10-16T02:05:19;1.40;;;1.30;;
4148;SDS011;2088;51.032;7.082;2022-10-16T02:07:49;1.10;;;1.00;;
4148;SDS011;2088;51.032;7.082;2022-10-16T02:10:16;5.47;;;1.20;;
4148;SDS011;2088;51.032;7.082;2022-10-16T02:12:44;2.10;;;1.73;;
4148;SDS011;2088;51.032;7.082;2022-10-16T02:15:17;1.10;;;1.00;;
4148;SDS011;2088;51.032;7.082;2022-10-16T02:17:43;4.07;;;0.93;;
4148;SDS011;2088;51.032;7.082;2022-10-16T02:20:10;5.33;;;1.43;;
4148;SDS011;2088;51.032;7.082;2022-10-16T02:22:38;1.20;;;1.10;;
4148;SDS011;2088;51.032;7.082;2022-10-16T02:25:08;1.00;;;0.90;;
4148;SDS011;2088;51.032;7.082;2022-10-16T02:27:38;1.27;;;1.17;;
4148;SDS011;2088;51.032;7.082;2022-10-16T02:30:11;16.30;;;1.20;;
4148;SDS011;2088;51.032;7.082;2022-10-16T02:32:42;2.43;;;1.07;;
4148;SDS011;2088;51.032;7.082;2022-10-16T02:35:12;1.80;;;1.03;;
4148;SDS011;2088;51.032;7.082;2022-10-16T02:37:39;4.30;;;0.80;;
4148;SDS011;2088;51.032;7.082;2022-10-16T02:40:07;1.20;;;1.00;;
4148;SDS011;2088;51.032;7.082;2022-10-16T02:42:35;5.13;;;1.10;;
4148;SDS011;2088;51.032;7.082;2022-10-16T02:45:03;1.63;;;0.80;;
4148;SDS011;2088;51.032;7.082;2022-10-16T02:47:30;1.57;;;1.40;;
4148;SDS011;2088;51.032;7.082;2022-10-16T02:49:58;1.00;;;0.90;;
4148;SDS011;2088;51.032;7.082;2022-10-16T02:52:24;3.83;;;1.37;;
4148;SDS011;2088;51.032;7.082;2022-10-16T02:54:51;1.57;;;0.90;;
4148;SDS011;2088;51.032;7.082;2022-10-16T02:57:17;1.53;;;1.00;;
4148;SDS011;2088;51.032;7.082;2022-10-16T02:59:44;1.40;;;1.20;;
4148;SDS011;2088;51.032;7.082;2022-10-16T03:02:11;1.10;;;0.80;;
4148;SDS011;2088;51.032;7.082;2022-10-16T03:04:37;2.90;;;1.40;;
4148;SDS011;2088;51.032;7.082;2022-10-16T03:07:05;1.90;;;1.07;;
4148;SDS011;2088;51.032;7.082;2022-10-16T03:09:32;2.33;;;1.33;;
4148;SDS011;2088;51.032;7.082;2022-10-16T03:11:59;1.33;;;1.23;;
4148;SDS011;2088;51.032;7.082;2022-10-16T03:14:25;2.13;;;1.40;;
4148;SDS011;2088;51.032;7.082;2022-10-16T03:16:52;4.33;;;0.80;;
4148;SDS011;2088;51.032;7.082;2022-10-16T03:19:18;5.80;;;1.10;;
4148;SDS011;2088;51.032;7.082;2022-10-16T03:21:45;2.00;;;1.67;;
4148;SDS011;2088;51.032;7.082;2022-10-16T03:24:13;1.00;;;0.90;;
4148;SDS011;2088;51.032;7.082;2022-10-16T03:26:39;2.73;;;1.10;;
4148;SDS011;2088;51.032;7.082;2022-10-16T03:29:06;7.83;;;1.07;;
4148;SDS011;2088;51.032;7.082;2022-10-16T03:31:32;1.70;;;1.00;;
4148;SDS011;2088;51.032;7.082;2022-10-16T03:33:59;2.70;;;1.10;;
4148;SDS011;2088;51.032;7.082;2022-10-16T03:36:25;0.93;;;0.83;;
4148;SDS011;2088;51.032;7.082;2022-10-16T03:38:52;2.13;;;1.17;;
4148;SDS011;2088;51.032;7.082;2022-10-16T03:41:20;1.20;;;1.10;;
4148;SDS011;2088;51.032;7.082;2022-10-16T03:43:46;2.90;;;1.00;;
4148;SDS011;2088;51.032;7.082;2022-10-16T03:46:12;1.10;;;0.80;;
4148;SDS011;2088;51.032;7.082;2022-10-16T03:48:39;1.50;;;1.00;;
4148;SDS011;2088;51.032;7.082;2022-10-16T03:51:05;4.50;;;1.80;;
4148;SDS011;2088;51.032;7.082;2022-10-16T03:53:32;0.83;;;0.80;;
4148;SDS011;2088;51.032;7.082;2022-10-16T03:55:58;4.03;;;1.30;;
4148;SDS011;2088;51.032;7.082;2022-10-16T03:58:26;2.03;;;1.30;;
4148;SDS011;2088;51.032;7.082;2022-10-16T04:00:53;1.20;;;1.00;;
4148;SDS011;2088;51.032;7.082;2022-10-16T04:03:19;3.20;;;1.10;;
4148;SDS011;2088;51.032;7.082;2022-10-16T04:05:46;2.27;;;0.90;;
4148;SDS011;2088;51.032;7.082;2022-10-16T04:08:12;1.10;;;0.80;;
4148;SDS011;2088;51.032;7.082;2022-10-16T04:10:39;1.07;;;0.97;;
4148;SDS011;2088;51.032;7.082;2022-10-16T04:13:05;2.87;;;1.07;;
4148;SDS011;2088;51.032;7.082;2022-10-16T04:15:33;2.10;;;1.13;;
4148;SDS011;2088;51.032;7.082;2022-10-16T04:18:00;3.03;;;0.90;;
4148;SDS011;2088;51.032;7.082;2022-10-16T04:20:26;1.37;;;1.00;;
4148;SDS011;2088;51.032;7.082;2022-10-16T04:22:53;1.63;;;1.30;;
4148;SDS011;2088;51.032;7.082;2022-10-16T04:25:19;1.83;;;1.47;;
4148;SDS011;2088;51.032;7.082;2022-10-16T04:27:45;5.67;;;2.37;;
4148;SDS011;2088;51.032;7.082;2022-10-16T04:30:12;1.17;;;0.97;;
4148;SDS011;2088;51.032;7.082;2022-10-16T04:32:40;8.43;;;1.03;;
4148;SDS011;2088;51.032;7.082;2022-10-16T04:35:07;8.40;;;1.97;;
4148;SDS011;2088;51.032;7.082;2022-10-16T04:37:34;1.40;;;1.10;;
4148;SDS011;2088;51.032;7.082;2022-10-16T04:40:00;1.73;;;1.40;;
4148;SDS011;2088;51.032;7.082;2022-10-16T04:42:27;1.37;;;1.10;;
4148;SDS011;2088;51.032;7.082;2022-10-16T04:44:53;2.13;;;1.33;;
4148;SDS011;2088;51.032;7.082;2022-10-16T04:47:20;1.10;;;0.97;;
4148;SDS011;2088;51.032;7.082;2022-10-16T04:49:47;1.83;;;0.90;;
4148;SDS011;2088;51.032;7.082;2022-10-16T04:52:14;1.20;;;1.10;;
4148;SDS011;2088;51.032;7.082;2022-10-16T04:54:40;1.53;;;0.83;;
4148;SDS011;2088;51.032;7.082;2022-10-16T04:57:07;1.07;;;0.83;;
4148;SDS011;2088;51.032;7.082;2022-10-16T04:59:33;1.43;;;1.17;;
4148;SDS011;2088;51.032;7.082;2022-10-16T05:02:00;1.40;;;1.10;;
4148;SDS011;2088;51.032;7.082;2022-10-16T05:04:26;1.80;;;1.07;;
4148;SDS011;2088;51.032;7.082;2022-10-16T05:06:54;7.50;;;1.37;;
4148;SDS011;2088;51.032;7.082;2022-10-16T05:09:20;1.37;;;1.00;;
4148;SDS011;2088;51.032;7.082;2022-10-16T05:11:47;0.93;;;0.83;;
4148;SDS011;2088;51.032;7.082;2022-10-16T05:14:13;1.20;;;1.00;;
4148;SDS011;2088;51.032;7.082;2022-10-16T05:16:39;1.70;;;1.13;;
4148;SDS011;2088;51.032;7.082;2022-10-16T05:19:06;6.40;;;0.90;;
4148;SDS011;2088;51.032;7.082;2022-10-16T05:21:32;1.53;;;1.33;;
4148;SDS011;2088;51.032;7.082;2022-10-16T05:24:00;1.10;;;0.97;;
4148;SDS011;2088;51.032;7.082;2022-10-16T05:26:27;3.13;;;0.90;;
4148;SDS011;2088;51.032;7.082;2022-10-16T05:28:53;1.10;;;0.93;;
4148;SDS011;2088;51.032;7.082;2022-10-16T05:31:19;1.20;;;0.97;;
4148;SDS011;2088;51.032;7.082;2022-10-16T05:33:46;13.83;;;1.30;;
4148;SDS011;2088;51.032;7.082;2022-10-16T05:36:12;4.93;;;1.20;;
4148;SDS011;2088;51.032;7.082;2022-10-16T05:38:39;1.13;;;1.00;;
4148;SDS011;2088;51.032;7.082;2022-10-16T05:41:06;1.23;;;0.73;;
4148;SDS011;2088;51.032;7.082;2022-10-16T05:43:33;1.20;;;1.10;;
4148;SDS011;2088;51.032;7.082;2022-10-16T05:46:00;1.07;;;0.93;;
4148;SDS011;2088;51.032;7.082;2022-10-16T05:48:28;1.73;;;0.90;;
4148;SDS011;2088;51.032;7.082;2022-10-16T05:50:58;1.83;;;0.90;;
4148;SDS011;2088;51.032;7.082;2022-10-16T05:53:26;1.80;;;1.70;;
4148;SDS011;2088;51.032;7.082;2022-10-16T05:55:54;1.70;;;0.93;;
4148;SDS011;2088;51.032;7.082;2022-10-16T05:58:22;1.20;;;1.10;;
4148;SDS011;2088;51.032;7.082;2022-10-16T06:00:53;1.77;;;1.10;;
4148;SDS011;2088;51.032;7.082;2022-10-16T06:03:21;0.90;;;0.80;;
4148;SDS011;2088;51.032;7.082;2022-10-16T06:05:47;3.40;;;1.03;;
4148;SDS011;2088;51.032;7.082;2022-10-16T06:08:14;4.23;;;1.07;;
4148;SDS011;2088;51.032;7.082;2022-10-16T06:10:40;1.30;;;1.20;;
4148;SDS011;2088;51.032;7.082;2022-10-16T06:13:07;4.23;;;1.20;;
4148;SDS011;2088;51.032;7.082;2022-10-16T06:15:35;2.10;;;0.97;;
4148;SDS011;2088;51.032;7.082;2022-10-16T06:18:01;2.80;;;1.00;;
4148;SDS011;2088;51.032;7.082;2022-10-16T06:20:27;1.60;;;1.23;;
4148;SDS011;2088;51.032;7.082;2022-10-16T06:22:54;1.03;;;0.93;;
4148;SDS011;2088;51.032;7.082;2022-10-16T06:25:20;1.20;;;0.90;;
4148;SDS011;2088;51.032;7.082;2022-10-16T06:27:47;4.80;;;2.40;;
4148;SDS011;2088;51.032;7.082;2022-10-16T06:30:13;2.30;;;1.43;;
4148;SDS011;2088;51.032;7.082;2022-10-16T06:32:41;1.87;;;1.37;;
4148;SDS011;2088;51.032;7.082;2022-10-16T06:35:07;1.87;;;1.57;;
4148;SDS011;2088;51.032;7.082;2022-10-16T06:37:34;1.53;;;1.43;;
4148;SDS011;2088;51.032;7.082;2022-10-16T06:40:00;5.00;;;1.83;;
4148;SDS011;2088;51.032;7.082;2022-10-16T06:42:29;1.20;;;1.10;;
4148;SDS011;2088;51.032;7.082;2022-10-16T06:44:56;2.27;;;1.67;;
4148;SDS011;2088;51.032;7.082;2022-10-16T06:47:22;1.53;;;1.30;;
4148;SDS011;2088;51.032;7.082;2022-10-16T06:49:50;3.03;;;1.20;;
4148;SDS011;2088;51.032;7.082;2022-10-16T06:52:16;1.77;;;1.30;;
4148;SDS011;2088;51.032;7.082;2022-10-16T06:54:43;1.40;;;1.30;;
4148;SDS011;2088;51.032;7.082;2022-10-16T06:57:09;1.63;;;1.33;;
4148;SDS011;2088;51.032;7.082;2022-10-16T06:59:36;1.73;;;1.53;;
4148;SDS011;2088;51.032;7.082;2022-10-16T07:02:02;3.67;;;1.40;;
4148;SDS011;2088;51.032;7.082;2022-10-16T07:04:28;3.90;;;1.20;;
4148;SDS011;2088;51.032;7.082;2022-10-16T07:06:56;1.30;;;1.00;;
4148;SDS011;2088;51.032;7.082;2022-10-16T07:09:23;1.23;;;0.93;;
4148;SDS011;2088;51.032;7.082;2022-10-16T07:11:49;1.63;;;0.90;;
4148;SDS011;2088;51.032;7.082;2022-10-16T07:14:16;2.00;;;1.23;;
4148;SDS011;2088;51.032;7.082;2022-10-16T07:16:45;1.70;;;1.20;;
4148;SDS011;2088;51.032;7.082;2022-10-16T07:19:12;1.50;;;1.17;;
4148;SDS011;2088;51.032;7.082;2022-10-16T07:21:40;2.20;;;1.00;;
4148;SDS011;2088;51.032;7.082;2022-10-16T07:24:11;1.53;;;1.40;;
4148;SDS011;2088;51.032;7.082;2022-10-16T07:26:39;1.50;;;1.40;;
4148;SDS011;2088;51.032;7.082;2022-10-16T07:29:06;1.50;;;1.40;;
4148;SDS011;2088;51.032;7.082;2022-10-16T07:31:37;3.00;;;1.10;;
4148;SDS011;2088;51.032;7.082;2022-10-16T07:34:04;1.70;;;1.60;;
4148;SDS011;2088;51.032;7.082;2022-10-16T07:36:30;2.10;;;1.50;;
4148;SDS011;2088;51.032;7.082;2022-10-16T07:38:57;1.57;;;1.40;;
4148;SDS011;2088;51.032;7.082;2022-10-16T07:41:24;1.30;;;1.20;;
4148;SDS011;2088;51.032;7.082;2022-10-16T07:43:51;3.80;;;2.10;;
4148;SDS011;2088;51.032;7.082;2022-10-16T07:46:19;1.10;;;1.00;;
4148;SDS011;2088;51.032;7.082;2022-10-16T07:48:47;4.00;;;1.30;;
4148;SDS011;2088;51.032;7.082;2022-10-16T07:51:14;2.03;;;1.83;;
4148;SDS011;2088;51.032;7.082;2022-10-16T07:53:42;1.43;;;1.30;;
4148;SDS011;2088;51.032;7.082;2022-10-16T07:56:09;2.37;;;1.17;;
4148;SDS011;2088;51.032;7.082;2022-10-16T07:58:38;1.43;;;1.33;;
4148;SDS011;2088;51.032;7.082;2022-10-16T08:01:05;2.30;;;2.07;;
4148;SDS011;2088;51.032;7.082;2022-10-16T08:03:32;1.50;;;1.10;;
4148;SDS011;2088;51.032;7.082;2022-10-16T08:05:59;2.43;;;1.60;;
4148;SDS011;2088;51.032;7.082;2022-10-16T08:08:26;2.50;;;1.07;;
4148;SDS011;2088;51.032;7.082;2022-10-16T08:10:53;2.67;;;1.00;;
4148;SDS011;2088;51.032;7.082;2022-10-16T08:13:20;2.60;;;1.10;;
4148;SDS011;2088;51.032;7.082;2022-10-16T08:15:48;1.00;;;0.90;;
4148;SDS011;2088;51.032;7.082;2022-10-16T08:18:15;1.10;;;0.90;;
4148;SDS011;2088;51.032;7.082;2022-10-16T08:20:42;1.40;;;1.10;;
4148;SDS011;2088;51.032;7.082;2022-10-16T08:23:09;1.80;;;0.90;;
4148;SDS011;2088;51.032;7.082;2022-10-16T08:25:36;1.20;;;1.03;;
4148;SDS011;2088;51.032;7.082;2022-10-16T08:28:03;2.80;;;1.00;;
4148;SDS011;2088;51.032;7.082;2022-10-16T08:30:30;2.17;;;1.30;;
4148;SDS011;2088;51.032;7.082;2022-10-16T08:32:58;2.30;;;0.87;;
4148;SDS011;2088;51.032;7.082;2022-10-16T08:35:25;1.10;;;0.97;;
4148;SDS011;2088;51.032;7.082;2022-10-16T08:37:52;3.93;;;0.97;;
4148;SDS011;2088;51.032;7.082;2022-10-16T08:40:19;1.17;;;0.90;;
4148;SDS011;2088;51.032;7.082;2022-10-16T08:43:04;1.10;;;0.80;;
4148;SDS011;2088;51.032;7.082;2022-10-16T08:45:48;2.60;;;0.90;;
4148;SDS011;2088;51.032;7.082;2022-10-16T08:48:31;1.77;;;0.80;;
4148;SDS011;2088;51.032;7.082;2022-10-16T08:51:07;2.10;;;0.90;;
4148;SDS011;2088;51.032;7.082;2022-10-16T08:53:38;2.60;;;0.80;;
4148;SDS011;2088;51.032;7.082;2022-10-16T08:56:10;1.67;;;0.90;;
4148;SDS011;2088;51.032;7.082;2022-10-16T08:58:37;1.10;;;0.90;;
4148;SDS011;2088;51.032;7.082;2022-10-16T09:01:04;1.30;;;1.00;;
4148;SDS011;2088;51.032;7.082;2022-10-16T09:03:42;1.00;;;0.80;;
4148;SDS011;2088;51.032;7.082;2022-10-16T09:06:26;1.10;;;0.80;;
4148;SDS011;2088;51.032;7.082;2022-10-16T09:09:06;2.93;;;0.87;;
4148;SDS011;2088;51.032;7.082;2022-10-16T09:11:53;1.90;;;0.70;;
4148;SDS011;2088;51.032;7.082;2022-10-16T09:14:31;0.90;;;0.60;;
4148;SDS011;2088;51.032;7.082;2022-10-16T09:17:09;0.97;;;0.80;;
4148;SDS011;2088;51.032;7.082;2022-10-16T09:20:08;3.97;;;0.83;;
4148;SDS011;2088;51.032;7.082;2022-10-16T09:22:43;1.73;;;0.80;;
4148;SDS011;2088;51.032;7.082;2022-10-16T09:25:11;1.10;;;0.90;;
4148;SDS011;2088;51.032;7.082;2022-10-16T09:27:39;1.20;;;0.77;;
4148;SDS011;2088;51.032;7.082;2022-10-16T09:30:11;4.30;;;0.80;;
4148;SDS011;2088;51.032;7.082;2022-10-16T09:32:39;1.00;;;0.60;;
4148;SDS011;2088;51.032;7.082;2022-10-16T09:35:10;1.23;;;0.77;;
4148;SDS011;2088;51.032;7.082;2022-10-16T09:37:40;1.60;;;1.00;;
4148;SDS011;2088;51.032;7.082;2022-10-16T09:40:11;1.20;;;0.60;;
4148;SDS011;2088;51.032;7.082;2022-10-16T09:42:39;0.80;;;0.60;;
4148;SDS011;2088;51.032;7.082;2022-10-16T09:45:18;1.13;;;0.70;;
4148;SDS011;2088;51.032;7.082;2022-10-16T09:47:47;1.07;;;0.60;;
4148;SDS011;2088;51.032;7.082;2022-10-16T09:50:21;1.33;;;0.70;;
4148;SDS011;2088;51.032;7.082;2022-10-16T09:52:51;1.53;;;0.80;;
4148;SDS011;2088;51.032;7.082;2022-10-16T09:55:28;3.40;;;0.80;;
4148;SDS011;2088;51.032;7.082;2022-10-16T09:57:54;1.13;;;0.70;;
4148;SDS011;2088;51.032;7.082;2022-10-16T10:00:21;2.50;;;0.70;;
4148;SDS011;2088;51.032;7.082;2022-10-16T10:02:49;1.40;;;0.90;;
4148;SDS011;2088;51.032;7.082;2022-10-16T10:05:17;1.40;;;0.77;;
4148;SDS011;2088;51.032;7.082;2022-10-16T10:07:53;0.90;;;0.60;;
4148;SDS011;2088;51.032;7.082;2022-10-16T10:10:21;1.00;;;0.63;;
4148;SDS011;2088;51.032;7.082;2022-10-16T10:12:49;5.23;;;0.80;;
4148;SDS011;2088;51.032;7.082;2022-10-16T10:15:16;6.53;;;0.80;;
4148;SDS011;2088;51.032;7.082;2022-10-16T10:17:45;1.77;;;1.00;;
4148;SDS011;2088;51.032;7.082;2022-10-16T10:20:15;2.40;;;0.60;;
4148;SDS011;2088;51.032;7.082;2022-10-16T10:22:50;1.20;;;0.60;;
4148;SDS011;2088;51.032;7.082;2022-10-16T10:25:19;0.90;;;0.60;;
4148;SDS011;2088;51.032;7.082;2022-10-16T10:28:10;0.87;;;0.60;;
4148;SDS011;2088;51.032;7.082;2022-10-16T10:30:53;2.40;;;0.90;;
4148;SDS011;2088;51.032;7.082;2022-10-16T10:33:27;11.80;;;1.70;;
4148;SDS011;2088;51.032;7.082;2022-10-16T10:36:04;2.90;;;0.63;;
4148;SDS011;2088;51.032;7.082;2022-10-16T10:38:41;1.23;;;0.60;;
4148;SDS011;2088;51.032;7.082;2022-10-16T10:41:19;1.40;;;0.60;;
4148;SDS011;2088;51.032;7.082;2022-10-16T10:44:06;2.70;;;1.10;;
4148;SDS011;2088;51.032;7.082;2022-10-16T10:46:41;1.00;;;0.50;;
4148;SDS011;2088;51.032;7.082;2022-10-16T10:49:24;2.60;;;0.70;;
4148;SDS011;2088;51.032;7.082;2022-10-16T10:52:02;1.67;;;0.60;;
4148;SDS011;2088;51.032;7.082;2022-10-16T10:54:49;6.50;;;2.83;;
4148;SDS011;2088;51.032;7.082;2022-10-16T10:57:21;1.00;;;0.60;;
4148;SDS011;2088;51.032;7.082;2022-10-16T11:00:03;4.97;;;0.80;;
4148;SDS011;2088;51.032;7.082;2022-10-16T11:02:41;1.47;;;0.60;;
4148;SDS011;2088;51.032;7.082;2022-10-16T11:05:23;1.37;;;0.60;;
4148;SDS011;2088;51.032;7.082;2022-10-16T11:07:57;1.10;;;0.53;;
4148;SDS011;2088;51.032;7.082;2022-10-16T11:10:28;6.10;;;0.83;;
4148;SDS011;2088;51.032;7.082;2022-10-16T11:13:03;1.10;;;0.60;;
4148;SDS011;2088;51.032;7.082;2022-10-16T11:15:37;2.60;;;0.70;;
4148;SDS011;2088;51.032;7.082;2022-10-16T11:18:08;2.50;;;0.70;;
4148;SDS011;2088;51.032;7.082;2022-10-16T11:20:42;2.60;;;0.60;;
4148;SDS011;2088;51.032;7.082;2022-10-16T11:23:16;1.20;;;0.70;;
4148;SDS011;2088;51.032;7.082;2022-10-16T11:25:48;3.47;;;0.73;;
4148;SDS011;2088;51.032;7.082;2022-10-16T11:28:16;1.43;;;0.60;;
4148;SDS011;2088;51.032;7.082;2022-10-16T11:30:46;1.83;;;0.60;;
4148;SDS011;2088;51.032;7.082;2022-10-16T11:36:05;1.10;;;0.60;;
4148;SDS011;2088;51.032;7.082;2022-10-16T11:38:39;1.20;;;0.70;;
4148;SDS011;2088;51.032;7.082;2022-10-16T11:41:20;0.90;;;0.50;;
4148;SDS011;2088;51.032;7.082;2022-10-16T11:43:54;0.90;;;0.50;;
4148;SDS011;2088;51.032;7.082;2022-10-16T11:46:40;1.10;;;0.50;;
4148;SDS011;2088;51.032;7.082;2022-10-16T11:49:12;1.20;;;0.60;;
4148;SDS011;2088;51.032;7.082;2022-10-16T11:51:42;4.23;;;1.33;;
4148;SDS011;2088;51.032;7.082;2022-10-16T11:54:14;3.20;;;0.63;;
4148;SDS011;2088;51.032;7.082;2022-10-16T11:56:50;3.33;;;0.70;;
4148;SDS011;2088;51.032;7.082;2022-10-16T11:59:22;3.67;;;1.03;;
4148;SDS011;2088;51.032;7.082;2022-10-16T12:01:57;2.27;;;0.70;;
4148;SDS011;2088;51.032;7.082;2022-10-16T12:04:42;1.87;;;0.60;;
4148;SDS011;2088;51.032;7.082;2022-10-16T12:07:15;1.57;;;0.70;;
4148;SDS011;2088;51.032;7.082;2022-10-16T12:09:47;1.30;;;0.77;;
4148;SDS011;2088;51.032;7.082;2022-10-16T12:12:28;2.40;;;1.10;;
4148;SDS011;2088;51.032;7.082;2022-10-16T12:15:18;6.20;;;2.23;;
4148;SDS011;2088;51.032;7.082;2022-10-16T12:17:46;1.73;;;0.90;;
4148;SDS011;2088;51.032;7.082;2022-10-16T12:20:19;1.23;;;0.60;;
4148;SDS011;2088;51.032;7.082;2022-10-16T12:22:49;2.30;;;0.80;;
4148;SDS011;2088;51.032;7.082;2022-10-16T12:25:20;1.30;;;0.70;;
4148;SDS011;2088;51.032;7.082;2022-10-16T12:27:55;1.87;;;0.70;;
4148;SDS011;2088;51.032;7.082;2022-10-16T12:30:23;4.43;;;0.60;;
4148;SDS011;2088;51.032;7.082;2022-10-16T12:32:55;3.40;;;1.23;;
4148;SDS011;2088;51.032;7.082;2022-10-16T12:35:24;2.23;;;0.70;;
4148;SDS011;2088;51.032;7.082;2022-10-16T12:37:52;1.57;;;0.67;;
4148;SDS011;2088;51.032;7.082;2022-10-16T12:40:25;1.23;;;0.60;;
4148;SDS011;2088;51.032;7.082;2022-10-16T12:42:55;2.93;;;0.70;;
4148;SDS011;2088;51.032;7.082;2022-10-16T12:45:26;0.93;;;0.53;;
4148;SDS011;2088;51.032;7.082;2022-10-16T12:47:54;2.47;;;0.90;;
4148;SDS011;2088;51.032;7.082;2022-10-16T12:50:29;1.00;;;0.50;;
4148;SDS011;2088;51.032;7.082;2022-10-16T12:52:58;0.90;;;0.60;;
4148;SDS011;2088;51.032;7.082;2022-10-16T12:55:24;1.07;;;0.60;;
4148;SDS011;2088;51.032;7.082;2022-10-16T12:58:06;1.63;;;0.70;;
4148;SDS011;2088;51.032;7.082;2022-10-16T13:00:43;1.73;;;0.63;;
4148;SDS011;2088;51.032;7.082;2022-10-16T13:03:20;1.37;;;0.70;;
4148;SDS011;2088;51.032;7.082;2022-10-16T13:06:00;1.00;;;0.60;;
4148;SDS011;2088;51.032;7.082;2022-10-16T13:08:38;3.00;;;1.00;;
4148;SDS011;2088;51.032;7.082;2022-10-16T13:11:17;1.37;;;0.77;;
4148;SDS011;2088;51.032;7.082;2022-10-16T13:13:59;1.00;;;0.50;;
4148;SDS011;2088;51.032;7.082;2022-10-16T13:16:39;1.37;;;0.50;;
4148;SDS011;2088;51.032;7.082;2022-10-16T13:19:18;1.53;;;0.60;;
4148;SDS011;2088;51.032;7.082;2022-10-16T13:21:54;1.63;;;0.67;;
4148;SDS011;2088;51.032;7.082;2022-10-16T13:24:30;1.10;;;0.50;;
4148;SDS011;2088;51.032;7.082;2022-10-16T13:27:10;1.00;;;0.50;;
4148;SDS011;2088;51.032;7.082;2022-10-16T13:29:43;2.30;;;0.60;;
4148;SDS011;2088;51.032;7.082;2022-10-16T13:32:10;1.03;;;0.60;;
4148;SDS011;2088;51.032;7.082;2022-10-16T13:34:43;2.77;;;0.80;;
4148;SDS011;2088;51.032;7.082;2022-10-16T13:37:16;1.07;;;0.60;;
4148;SDS011;2088;51.032;7.082;2022-10-16T13:39:44;2.67;;;0.70;;
4148;SDS011;2088;51.032;7.082;2022-10-16T13:42:12;4.70;;;0.70;;
4148;SDS011;2088;51.032;7.082;2022-10-16T13:44:43;1.20;;;0.53;;
4148;SDS011;2088;51.032;7.082;2022-10-16T13:47:16;2.30;;;0.60;;
4148;SDS011;2088;51.032;7.082;2022-10-16T13:49:43;3.83;;;0.77;;
4148;SDS011;2088;51.032;7.082;2022-10-16T13:52:16;1.10;;;0.60;;
4148;SDS011;2088;51.032;7.082;2022-10-16T13:54:44;2.13;;;0.60;;
4148;SDS011;2088;51.032;7.082;2022-10-16T13:57:11;1.77;;;0.70;;
4148;SDS011;2088;51.032;7.082;2022-10-16T13:59:39;1.00;;;0.67;;
4148;SDS011;2088;51.032;7.082;2022-10-16T14:02:15;1.77;;;0.70;;
4148;SDS011;2088;51.032;7.082;2022-10-16T14:04:47;2.07;;;1.27;;
4148;SDS011;2088;51.032;7.082;2022-10-16T14:07:17;1.57;;;0.60;;
4148;SDS011;2088;51.032;7.082;2022-10-16T14:09:47;1.50;;;0.50;;
4148;SDS011;2088;51.032;7.082;2022-10-16T14:12:15;2.57;;;0.63;;
4148;SDS011;2088;51.032;7.082;2022-10-16T14:14:43;1.50;;;0.60;;
4148;SDS011;2088;51.032;7.082;2022-10-16T14:17:17;1.73;;;0.90;;
4148;SDS011;2088;51.032;7.082;2022-10-16T14:19:46;2.10;;;0.90;;
4148;SDS011;2088;51.032;7.082;2022-10-16T14:22:21;2.93;;;0.87;;
4148;SDS011;2088;51.032;7.082;2022-10-16T14:24:54;4.70;;;0.97;;
4148;SDS011;2088;51.032;7.082;2022-10-16T14:27:23;1.40;;;0.70;;
4148;SDS011;2088;51.032;7.082;2022-10-16T14:30:03;2.33;;;0.93;;
4148;SDS011;2088;51.032;7.082;2022-10-16T14:32:39;3.00;;;0.70;;
4148;SDS011;2088;51.032;7.082;2022-10-16T14:35:11;1.90;;;0.90;;
4148;SDS011;2088;51.032;7.082;2022-10-16T14:37:50;1.87;;;0.80;;
4148;SDS011;2088;51.032;7.082;2022-10-16T14:40:17;1.80;;;0.70;;
4148;SDS011;2088;51.032;7.082;2022-10-16T14:42:44;3.47;;;0.90;;
4148;SDS011;2088;51.032;7.082;2022-10-16T14:45:12;1.57;;;0.93;;
4148;SDS011;2088;51.032;7.082;2022-10-16T14:47:46;11.57;;;1.27;;
4148;SDS011;2088;51.032;7.082;2022-10-16T14:50:15;1.27;;;0.83;;
4148;SDS011;2088;51.032;7.082;2022-10-16T14:52:42;2.13;;;0.90;;
4148;SDS011;2088;51.032;7.082;2022-10-16T14:55:09;1.23;;;0.83;;
4148;SDS011;2088;51.032;7.082;2022-10-16T14:57:35;2.87;;;1.10;;
4148;SDS011;2088;51.032;7.082;2022-10-16T15:00:04;2.57;;;1.57;;
4148;SDS011;2088;51.032;7.082;2022-10-16T15:02:39;2.40;;;1.73;;
4148;SDS011;2088;51.032;7.082;2022-10-16T15:05:11;2.93;;;1.33;;
4148;SDS011;2088;51.032;7.082;2022-10-16T15:07:40;2.40;;;1.13;;
4148;SDS011;2088;51.032;7.082;2022-10-16T15:10:06;1.70;;;1.10;;
4148;SDS011;2088;51.032;7.082;2022-10-16T15:12:33;1.00;;;0.70;;
4148;SDS011;2088;51.032;7.082;2022-10-16T15:15:00;1.23;;;0.90;;
4148;SDS011;2088;51.032;7.082;2022-10-16T15:17:26;1.00;;;0.70;;
4148;SDS011;2088;51.032;7.082;2022-10-16T15:19:53;1.20;;;0.90;;
4148;SDS011;2088;51.032;7.082;2022-10-16T15:22:21;2.03;;;1.07;;
4148;SDS011;2088;51.032;7.082;2022-10-16T15:24:48;1.80;;;1.40;;
4148;SDS011;2088;51.032;7.082;2022-10-16T15:27:14;1.77;;;1.60;;
4148;SDS011;2088;51.032;7.082;2022-10-16T15:29:41;4.03;;;2.27;;
4148;SDS011;2088;51.032;7.082;2022-10-16T15:32:08;3.20;;;2.90;;
4148;SDS011;2088;51.032;7.082;2022-10-16T15:34:35;5.23;;;3.60;;
4148;SDS011;2088;51.032;7.082;2022-10-16T15:37:02;7.37;;;4.73;;